Time;durP1;ratioP1;P1;durP2;ratioP2;P2;SDS_P1;SDS_P2;PMS_P1;PMS_P2;Temp;Humidity;BMP_temperature;BMP_pressure;BME280_temperature;BME280_humidity;BME280_pressure;Samples;Min_cycle;Max_cycle;Signal;HPM_P1;HPM_P2
2022/08/02 00:03:27;;;;;;;3.33;3.03;;;;;;;;;;10197907;28;20049;-60
2022/08/02 00:08:27;;;;;;;2.92;2.72;;;;;;;;;;10197351;28;20034;-61
2022/08/02 00:13:26;;;;;;;3.70;3.40;;;;;;;;;;10197263;28;20084;-61
2022/08/02 00:18:27;;;;;;;4.05;3.63;;;;;;;;;;10196930;28;20161;-60
2022/08/02 00:23:25;;;;;;;3.80;3.50;;;;;;;;;;10196968;28;20045;-60
2022/08/02 00:28:23;;;;;;;6.18;3.75;;;;;;;;;;10196442;28;20081;-60
2022/08/02 00:33:24;;;;;;;4.15;3.83;;;;;;;;;;10197461;28;20054;-60
2022/08/02 00:38:45;;;;;;;6.78;4.00;;;;;;;;;;10197487;28;20060;-60
2022/08/02 00:43:43;;;;;;;3.90;3.60;;;;;;;;;;10196810;28;20053;-60
2022/08/02 00:48:42;;;;;;;4.43;4.03;;;;;;;;;;10196650;28;20054;-60
2022/08/02 00:53:40;;;;;;;4.85;3.67;;;;;;;;;;10194824;28;20085;-60
2022/08/02 00:58:40;;;;;;;5.03;4.50;;;;;;;;;;10196459;28;20089;-60
2022/08/02 01:03:38;;;;;;;6.85;3.47;;;;;;;;;;10195828;28;20216;-60
2022/08/02 01:08:37;;;;;;;4.35;3.85;;;;;;;;;;10195963;28;20258;-60
2022/08/02 01:13:36;;;;;;;4.70;3.78;;;;;;;;;;10195523;28;20049;-60
2022/08/02 01:18:38;;;;;;;4.03;3.63;;;;;;;;;;10194630;28;20576;-60
2022/08/02 01:23:45;;;;;;;3.90;3.60;;;;;;;;;;10194973;28;20088;-61
2022/08/02 01:28:48;;;;;;;4.15;3.72;;;;;;;;;;10194855;28;20049;-60
2022/08/02 01:33:48;;;;;;;6.00;3.30;;;;;;;;;;10194726;28;20216;-60
2022/08/02 01:38:48;;;;;;;3.78;3.42;;;;;;;;;;10195045;28;20042;-60
2022/08/02 01:43:49;;;;;;;4.53;4.05;;;;;;;;;;10195368;28;20057;-60
2022/08/02 01:48:48;;;;;;;4.13;3.50;;;;;;;;;;10193339;28;20057;-60
2022/08/02 01:53:49;;;;;;;3.28;2.95;;;;;;;;;;10194106;28;20052;-60
2022/08/02 01:58:49;;;;;;;4.18;3.38;;;;;;;;;;10194083;28;20053;-60
2022/08/02 02:03:48;;;;;;;3.75;3.00;;;;;;;;;;10193215;28;20045;-60
2022/08/02 02:08:47;;;;;;;3.67;3.35;;;;;;;;;;10193750;28;20069;-60
2022/08/02 02:13:47;;;;;;;4.32;3.42;;;;;;;;;;10193380;28;20205;-60
2022/08/02 02:18:48;;;;;;;5.53;3.60;;;;;;;;;;10193357;28;20065;-60
2022/08/02 02:23:47;;;;;;;4.47;3.40;;;;;;;;;;10193644;28;20046;-60
2022/08/02 02:28:47;;;;;;;6.63;4.18;;;;;;;;;;10196493;28;20042;-60
2022/08/02 02:33:49;;;;;;;4.25;3.85;;;;;;;;;;10201366;28;20076;-60
2022/08/02 02:38:48;;;;;;;3.80;3.50;;;;;;;;;;10201312;28;20073;-60
2022/08/02 02:43:47;;;;;;;3.42;3.13;;;;;;;;;;10201117;28;20057;-61
2022/08/02 02:48:45;;;;;;;6.25;3.45;;;;;;;;;;10199977;28;20515;-60
2022/08/02 02:53:47;;;;;;;4.13;3.72;;;;;;;;;;10200615;28;20048;-60
2022/08/02 02:59:07;;;;;;;3.83;3.47;;;;;;;;;;10200388;28;20045;-59
2022/08/02 03:04:06;;;;;;;7.28;3.40;;;;;;;;;;10200181;28;20080;-60
2022/08/02 03:09:07;;;;;;;4.47;3.30;;;;;;;;;;10200037;28;20492;-60
2022/08/02 03:14:08;;;;;;;5.00;4.47;;;;;;;;;;10200168;28;20085;-60
2022/08/02 03:19:06;;;;;;;4.85;3.83;;;;;;;;;;10198885;28;20054;-60
2022/08/02 03:24:07;;;;;;;3.88;3.42;;;;;;;;;;10196545;28;20070;-60
2022/08/02 03:29:05;;;;;;;3.78;3.42;;;;;;;;;;10197326;28;20053;-60
2022/08/02 03:34:08;;;;;;;4.25;3.40;;;;;;;;;;10196885;28;20080;-60
2022/08/02 03:39:10;;;;;;;3.47;3.17;;;;;;;;;;10195480;28;20078;-60
2022/08/02 03:44:09;;;;;;;3.75;3.38;;;;;;;;;;10196065;28;20074;-60
2022/08/02 03:49:08;;;;;;;3.92;3.53;;;;;;;;;;10195392;28;20045;-60
2022/08/02 03:54:11;;;;;;;3.55;3.25;;;;;;;;;;10196036;28;20057;-60
2022/08/02 03:59:11;;;;;;;8.93;3.35;;;;;;;;;;10196368;28;20073;-60
2022/08/02 04:04:09;;;;;;;3.53;3.22;;;;;;;;;;10182827;28;20038;-60
2022/08/02 04:09:08;;;;;;;7.75;4.30;;;;;;;;;;10166412;28;20047;-60
2022/08/02 04:14:09;;;;;;;5.97;3.83;;;;;;;;;;10171510;28;20054;-60
2022/08/02 04:19:09;;;;;;;3.65;3.35;;;;;;;;;;10147282;28;1213178;-60
2022/08/02 04:24:12;;;;;;;7.75;3.38;;;;;;;;;;10197507;28;20069;-60
2022/08/02 04:29:17;;;;;;;3.60;3.30;;;;;;;;;;10196907;28;20060;-60
2022/08/02 04:34:16;;;;;;;3.63;3.33;;;;;;;;;;10170436;28;20481;-61
2022/08/02 04:39:14;;;;;;;5.22;3.88;;;;;;;;;;10175902;28;20072;-61
2022/08/02 04:44:12;;;;;;;5.13;3.50;;;;;;;;;;10192592;28;20076;-60
2022/08/02 04:49:12;;;;;;;6.97;4.20;;;;;;;;;;10174776;28;20586;-60
2022/08/02 04:54:11;;;;;;;3.05;2.75;;;;;;;;;;10157111;28;20035;-60
2022/08/02 04:59:11;;;;;;;3.65;3.35;;;;;;;;;;10156148;28;20080;-60
2022/08/02 05:04:09;;;;;;;3.75;3.45;;;;;;;;;;10156085;28;20055;-60
2022/08/02 05:09:09;;;;;;;3.70;3.40;;;;;;;;;;10154764;28;20081;-60
2022/08/02 05:14:07;;;;;;;6.00;4.18;;;;;;;;;;10151553;28;20078;-60
2022/08/02 05:19:05;;;;;;;4.82;3.08;;;;;;;;;;10150036;28;20081;-60
2022/08/02 05:24:04;;;;;;;4.47;3.72;;;;;;;;;;10152288;28;20085;-60
2022/08/02 05:29:04;;;;;;;3.20;2.95;;;;;;;;;;10154045;28;20074;-61
2022/08/02 05:34:03;;;;;;;7.65;3.35;;;;;;;;;;10154371;28;20053;-59
2022/08/02 05:39:07;;;;;;;4.07;3.40;;;;;;;;;;10154490;28;20092;-60
2022/08/02 05:44:10;;;;;;;3.50;3.20;;;;;;;;;;10155324;28;20050;-60
2022/08/02 05:49:09;;;;;;;4.47;3.35;;;;;;;;;;10154814;28;20050;-60
2022/08/02 05:54:12;;;;;;;2.70;2.50;;;;;;;;;;10154341;28;20076;-61
2022/08/02 05:59:13;;;;;;;4.93;2.93;;;;;;;;;;10154841;28;20077;-60
2022/08/02 06:04:16;;;;;;;4.25;3.22;;;;;;;;;;10153931;28;20081;-60
2022/08/02 06:09:15;;;;;;;3.93;2.97;;;;;;;;;;10153448;28;20437;-60
2022/08/02 06:14:21;;;;;;;4.20;3.28;;;;;;;;;;10153834;28;20126;-60
2022/08/02 06:19:27;;;;;;;4.70;2.88;;;;;;;;;;10153726;28;20477;-60
2022/08/02 06:24:26;;;;;;;3.53;2.38;;;;;;;;;;10153705;28;20078;-60
2022/08/02 06:29:26;;;;;;;2.47;2.28;;;;;;;;;;10154101;28;20038;-60
2022/08/02 06:34:24;;;;;;;3.85;2.60;;;;;;;;;;10153957;28;20054;-60
2022/08/02 06:39:27;;;;;;;2.50;2.30;;;;;;;;;;10153541;28;20090;-59
2022/08/02 06:44:26;;;;;;;4.13;2.58;;;;;;;;;;10153416;28;20416;-59
2022/08/02 06:49:45;;;;;;;12.82;2.40;;;;;;;;;;10153549;28;20081;-60
2022/08/02 06:54:51;;;;;;;2.63;2.42;;;;;;;;;;10153295;28;20074;-60
2022/08/02 06:59:51;;;;;;;2.70;2.05;;;;;;;;;;10152864;28;20150;-60
2022/08/02 07:04:49;;;;;;;6.05;5.43;;;;;;;;;;10153386;28;20065;-60
2022/08/02 07:09:48;;;;;;;3.10;2.80;;;;;;;;;;10153224;28;20049;-59
2022/08/02 07:14:59;;;;;;;2.55;2.33;;;;;;;;;;10156415;28;20046;-60
2022/08/02 07:19:58;;;;;;;5.20;3.75;;;;;;;;;;10159552;28;20100;-59
2022/08/02 07:24:57;;;;;;;3.38;2.50;;;;;;;;;;10160077;28;20085;-61
2022/08/02 07:29:55;;;;;;;5.90;2.53;;;;;;;;;;10158463;28;20503;-60
2022/08/02 07:34:56;;;;;;;2.35;2.05;;;;;;;;;;10160012;28;20464;-60
2022/08/02 07:39:54;;;;;;;2.65;2.45;;;;;;;;;;10159771;28;20086;-60
2022/08/02 07:44:53;;;;;;;2.15;1.95;;;;;;;;;;10158901;28;20069;-60
2022/08/02 07:49:51;;;;;;;2.13;1.92;;;;;;;;;;10158406;28;20073;-61
2022/08/02 07:54:53;;;;;;;3.25;2.10;;;;;;;;;;10159902;28;20042;-61
2022/08/02 07:59:52;;;;;;;22.50;20.60;;;;;;;;;;10157580;28;20078;-59
2022/08/02 08:04:50;;;;;;;5.20;4.70;;;;;;;;;;10158081;28;20078;-60
2022/08/02 08:09:49;;;;;;;5.93;4.47;;;;;;;;;;10158366;28;20042;-60
2022/08/02 08:14:55;;;;;;;7.18;5.80;;;;;;;;;;10157154;28;20078;-61
2022/08/02 08:19:53;;;;;;;2.58;2.38;;;;;;;;;;10156583;28;20086;-60
2022/08/02 08:24:51;;;;;;;2.10;1.90;;;;;;;;;;10156905;28;20088;-60
2022/08/02 08:29:50;;;;;;;5.50;2.70;;;;;;;;;;10158038;28;20053;-60
2022/08/02 08:34:50;;;;;;;4.88;2.15;;;;;;;;;;10158214;28;20070;-60
2022/08/02 08:39:49;;;;;;;4.22;3.03;;;;;;;;;;10157336;28;20085;-61
2022/08/02 08:44:56;;;;;;;5.28;2.10;;;;;;;;;;10157734;28;20076;-60
2022/08/02 08:49:58;;;;;;;2.40;2.20;;;;;;;;;;10156932;28;20050;-60
2022/08/02 08:54:57;;;;;;;6.32;2.67;;;;;;;;;;10156890;28;20042;-60
2022/08/02 08:59:56;;;;;;;3.78;2.55;;;;;;;;;;10154929;28;20096;-60
2022/08/02 09:04:54;;;;;;;3.45;2.30;;;;;;;;;;10156057;28;20054;-61
2022/08/02 09:09:54;;;;;;;3.53;2.33;;;;;;;;;;10155603;28;20050;-61
2022/08/02 09:14:53;;;;;;;3.97;1.95;;;;;;;;;;10155683;28;20579;-61
2022/08/02 09:20:06;;;;;;;1.65;1.55;;;;;;;;;;10155022;28;20092;-59
2022/08/02 09:25:15;;;;;;;3.85;2.03;;;;;;;;;;10154396;28;20046;-62
2022/08/02 09:30:16;;;;;;;2.53;2.33;;;;;;;;;;10155277;28;20448;-62
2022/08/02 09:35:30;;;;;;;2.15;1.95;;;;;;;;;;10155014;28;20085;-61
2022/08/02 09:40:50;;;;;;;2.97;1.80;;;;;;;;;;10153253;28;20488;-61
2022/08/02 09:45:49;;;;;;;2.88;2.40;;;;;;;;;;10155426;28;20042;-60
2022/08/02 09:50:48;;;;;;;2.78;2.58;;;;;;;;;;10153892;28;20535;-61
2022/08/02 09:55:54;;;;;;;2.60;2.33;;;;;;;;;;10154251;28;20503;-61
2022/08/02 10:00:55;;;;;;;4.43;2.03;;;;;;;;;;10151948;28;20088;-61
2022/08/02 10:05:57;;;;;;;2.70;2.45;;;;;;;;;;10153229;28;20074;-60
2022/08/02 10:11:02;;;;;;;2.15;1.95;;;;;;;;;;10154053;28;20043;-63
2022/08/02 10:16:02;;;;;;;1.75;1.52;;;;;;;;;;10153577;28;20667;-64
2022/08/02 10:21:01;;;;;;;2.08;1.70;;;;;;;;;;10153455;28;20100;-62
2022/08/02 10:26:00;;;;;;;2.08;1.88;;;;;;;;;;10153553;28;20431;-61
2022/08/02 10:31:01;;;;;;;2.80;2.60;;;;;;;;;;10152315;28;20415;-59
2022/08/02 10:36:04;;;;;;;3.80;1.85;;;;;;;;;;10152273;28;20047;-60
2022/08/02 10:41:06;;;;;;;2.57;2.17;;;;;;;;;;10153344;28;20091;-61
2022/08/02 10:46:38;;;;;;;3.45;2.13;;;;;;;;;;10153159;28;20385;-61
2022/08/02 10:51:57;;;;;;;2.30;1.65;;;;;;;;;;9998316;29;20094;-60
2022/08/02 10:56:56;;;;;;;3.30;1.90;;;;;;;;;;10128330;28;20088;-59
2022/08/02 11:02:02;;;;;;;2.00;1.83;;;;;;;;;;10160937;28;20527;-60
2022/08/02 11:07:08;;;;;;;3.70;1.83;;;;;;;;;;10159962;28;20146;-60
2022/08/02 11:12:08;;;;;;;1.95;1.85;;;;;;;;;;10159979;28;20103;-60
2022/08/02 11:17:13;;;;;;;2.60;1.70;;;;;;;;;;10160014;28;20566;-61
2022/08/02 11:22:15;;;;;;;5.40;3.25;;;;;;;;;;10159427;28;20098;-60
2022/08/02 11:27:17;;;;;;;2.78;1.95;;;;;;;;;;10158131;28;20420;-59
2022/08/02 11:32:21;;;;;;;2.70;2.45;;;;;;;;;;10159872;28;20046;-61
2022/08/02 11:37:29;;;;;;;1.90;1.80;;;;;;;;;;10159308;28;20080;-60
2022/08/02 11:42:31;;;;;;;3.65;2.65;;;;;;;;;;10159754;28;20058;-59
2022/08/02 11:47:30;;;;;;;4.40;2.38;;;;;;;;;;10158256;28;20428;-61
2022/08/02 11:52:34;;;;;;;2.10;1.70;;;;;;;;;;10159858;28;20042;-60
2022/08/02 11:57:32;;;;;;;;;;;;;;;;;;10159232;28;20042;-60
2022/08/02 12:02:51;;;;;;;4.72;3.80;;;;;;;;;;10158641;28;20323;-60
2022/08/02 12:07:52;;;;;;;2.70;1.88;;;;;;;;;;10159119;28;20074;-61
2022/08/02 12:12:51;;;;;;;2.33;2.13;;;;;;;;;;10159085;28;20042;-61
2022/08/02 12:23:08;;;;;;;2.30;1.90;;;;;;;;;;10159250;28;20051;-61
2022/08/02 12:28:13;;;;;;;2.30;2.08;;;;;;;;;;10157448;28;20061;-61
2022/08/02 12:33:15;;;;;;;4.03;1.83;;;;;;;;;;10157200;28;20046;-61
2022/08/02 12:38:14;;;;;;;7.95;2.70;;;;;;;;;;10157065;28;20074;-62
2022/08/02 12:43:20;;;;;;;3.90;3.47;;;;;;;;;;10156821;28;20070;-61
2022/08/02 12:48:30;;;;;;;3.80;1.95;;;;;;;;;;10156066;28;20055;-61
2022/08/02 12:53:36;;;;;;;4.68;4.28;;;;;;;;;;10155142;28;20082;-60
2022/08/02 12:58:46;;;;;;;6.30;1.88;;;;;;;;;;10154519;28;20085;-61
2022/08/02 13:03:44;;;;;;;4.75;3.38;;;;;;;;;;10155907;28;20046;-61
2022/08/02 13:09:11;;;;;;;4.13;3.30;;;;;;;;;;10155441;28;20082;-61
2022/08/02 13:14:10;;;;;;;1.38;1.27;;;;;;;;;;10154205;28;20082;-61
2022/08/02 13:19:09;;;;;;;2.03;1.65;;;;;;;;;;10154895;28;20086;-60
2022/08/02 13:24:10;;;;;;;3.83;3.00;;;;;;;;;;10154239;28;20051;-59
2022/08/02 13:29:28;;;;;;;4.07;2.78;;;;;;;;;;10155083;28;20166;-61
2022/08/02 13:34:30;;;;;;;5.47;3.00;;;;;;;;;;10154644;28;20507;-61
2022/08/02 13:39:30;;;;;;;4.45;2.20;;;;;;;;;;10154035;28;20516;-61
2022/08/02 13:44:28;;;;;;;2.83;2.20;;;;;;;;;;10154820;28;20161;-60
2022/08/02 13:49:27;;;;;;;6.85;3.85;;;;;;;;;;10154780;28;20354;-61
2022/08/02 13:54:47;;;;;;;2.13;1.75;;;;;;;;;;10153854;28;20459;-61
2022/08/02 13:59:45;;;;;;;2.55;1.77;;;;;;;;;;10152957;28;20138;-59
2022/08/02 14:04:56;;;;;;;4.35;3.10;;;;;;;;;;10153871;28;20117;-61
2022/08/02 14:09:59;;;;;;;2.42;2.00;;;;;;;;;;10153443;28;20474;-59
2022/08/02 14:14:58;;;;;;;3.75;3.33;;;;;;;;;;10153187;28;20097;-60
2022/08/02 14:19:58;;;;;;;1.50;1.40;;;;;;;;;;10153685;28;20105;-60
2022/08/02 14:24:56;;;;;;;1.40;1.30;;;;;;;;;;10159078;28;20085;-60
2022/08/02 14:30:08;;;;;;;2.40;2.15;;;;;;;;;;10161854;28;20046;-60
2022/08/02 14:35:07;;;;;;;2.28;1.73;;;;;;;;;;10161681;28;20047;-62
2022/08/02 14:40:06;;;;;;;6.88;2.67;;;;;;;;;;10161303;28;20086;-61
2022/08/02 14:45:28;;;;;;;6.05;2.70;;;;;;;;;;10161496;28;20089;-61
2022/08/02 14:50:38;;;;;;;5.95;3.55;;;;;;;;;;10161570;28;20039;-61
2022/08/02 14:55:37;;;;;;;4.97;3.33;;;;;;;;;;10161099;28;20128;-60
2022/08/02 15:00:36;;;;;;;3.80;2.90;;;;;;;;;;10160212;28;20506;-61
2022/08/02 15:05:38;;;;;;;2.17;1.95;;;;;;;;;;10161315;28;20085;-62
2022/08/02 15:10:37;;;;;;;2.92;2.63;;;;;;;;;;10160695;28;20096;-60
2022/08/02 15:15:37;;;;;;;6.22;2.70;;;;;;;;;;10160067;28;20053;-61
2022/08/02 15:20:41;;;;;;;4.82;4.10;;;;;;;;;;10159428;28;20105;-61
2022/08/02 15:25:54;;;;;;;4.90;1.92;;;;;;;;;;10160546;28;20050;-60
2022/08/02 15:30:54;;;;;;;3.83;1.90;;;;;;;;;;10160540;28;20521;-61
2022/08/02 15:36:02;;;;;;;5.15;1.98;;;;;;;;;;10159163;28;20066;-62
2022/08/02 15:41:03;;;;;;;1.92;1.50;;;;;;;;;;10158737;28;20077;-60
2022/08/02 15:46:03;;;;;;;3.25;1.70;;;;;;;;;;10159039;28;20484;-61
2022/08/02 15:51:01;;;;;;;4.50;2.10;;;;;;;;;;10158966;28;20054;-61
2022/08/02 15:56:00;;;;;;;4.38;2.38;;;;;;;;;;10158224;28;20050;-60
2022/08/02 16:01:08;;;;;;;3.75;2.22;;;;;;;;;;10157606;28;20081;-62
2022/08/02 16:06:14;;;;;;;6.72;3.28;;;;;;;;;;10157077;28;20362;-60
2022/08/02 16:11:16;;;;;;;3.78;2.53;;;;;;;;;;10158243;28;20082;-61
2022/08/02 16:16:16;;;;;;;3.97;2.40;;;;;;;;;;10156456;28;20170;-61
2022/08/02 16:21:19;;;;;;;5.57;2.95;;;;;;;;;;10156477;28;20081;-61
2022/08/02 16:26:19;;;;;;;9.90;6.43;;;;;;;;;;10157727;28;20447;-61
2022/08/02 16:31:23;;;;;;;5.80;4.05;;;;;;;;;;10156121;28;20081;-61
2022/08/02 16:36:22;;;;;;;2.65;2.28;;;;;;;;;;10156601;28;20129;-61
2022/08/02 16:41:28;;;;;;;2.78;2.47;;;;;;;;;;10156967;28;20074;-61
2022/08/02 16:46:55;;;;;;;;;;;;;;;;;;10155594;28;20550;-61
2022/08/02 16:51:55;;;;;;;2.28;1.95;;;;;;;;;;10156310;28;19937;-60
2022/08/02 16:56:53;;;;;;;6.80;4.15;;;;;;;;;;10157148;28;20085;-61
2022/08/02 17:01:52;;;;;;;8.70;7.15;;;;;;;;;;10155257;28;20082;-61
2022/08/02 17:07:10;;;;;;;6.60;4.80;;;;;;;;;;10157081;28;20065;-60
2022/08/02 17:12:31;;;;;;;7.65;3.70;;;;;;;;;;10154592;28;20061;-60
2022/08/02 17:17:30;;;;;;;5.97;2.90;;;;;;;;;;10154804;28;20053;-60
2022/08/02 17:22:33;;;;;;;4.85;3.13;;;;;;;;;;10154771;28;20189;-60
2022/08/02 17:27:34;;;;;;;7.93;2.57;;;;;;;;;;10155457;28;20082;-62
2022/08/02 17:32:32;;;;;;;8.95;3.60;;;;;;;;;;10156077;28;20061;-61
2022/08/02 17:37:35;;;;;;;3.17;2.65;;;;;;;;;;10155151;28;20082;-61
2022/08/02 17:42:41;;;;;;;5.10;2.47;;;;;;;;;;10155591;28;20186;-60
2022/08/02 17:47:40;;;;;;;3.92;2.08;;;;;;;;;;10154955;28;20046;-60
2022/08/02 17:52:41;;;;;;;7.25;4.03;;;;;;;;;;10153971;28;20061;-60
2022/08/02 17:57:59;;;;;;;4.70;3.25;;;;;;;;;;10154744;28;20081;-60
2022/08/02 18:02:58;;;;;;;5.78;3.90;;;;;;;;;;10154691;28;20082;-60
2022/08/02 18:07:57;;;;;;;5.90;3.47;;;;;;;;;;10152558;28;20046;-59
2022/08/02 18:12:58;;;;;;;5.80;3.72;;;;;;;;;;10154352;28;20039;-61
2022/08/02 18:17:56;;;;;;;8.18;4.60;;;;;;;;;;10153984;28;20089;-61
2022/08/02 18:22:59;;;;;;;6.25;2.50;;;;;;;;;;10153056;28;20077;-61
2022/08/02 18:27:58;;;;;;;4.57;2.80;;;;;;;;;;10153731;28;20070;-61
2022/08/02 18:33:02;;;;;;;3.17;2.53;;;;;;;;;;10153898;28;20083;-60
2022/08/02 18:38:23;;;;;;;4.40;1.95;;;;;;;;;;10153775;28;20049;-60
2022/08/02 18:43:24;;;;;;;2.00;1.80;;;;;;;;;;10154037;28;20440;-60
2022/08/02 18:48:27;;;;;;;3.47;2.10;;;;;;;;;;10153571;28;20488;-60
2022/08/02 18:53:29;;;;;;;2.45;2.25;;;;;;;;;;10153959;28;20073;-61
2022/08/02 18:58:39;;;;;;;2.80;2.05;;;;;;;;;;10153422;28;20408;-61
2022/08/02 19:03:39;;;;;;;2.53;1.85;;;;;;;;;;10153580;28;20081;-63
2022/08/02 19:08:38;;;;;;;3.67;2.00;;;;;;;;;;10153817;28;20049;-61
2022/08/02 19:13:37;;;;;;;4.00;2.20;;;;;;;;;;10160967;28;20043;-60
2022/08/02 19:18:39;;;;;;;5.85;3.00;;;;;;;;;;10160041;28;20054;-60
2022/08/02 19:23:39;;;;;;;7.25;2.08;;;;;;;;;;10160461;28;20077;-61
2022/08/02 19:28:51;;;;;;;3.17;2.53;;;;;;;;;;10160012;28;20073;-62
2022/08/02 19:33:51;;;;;;;2.90;2.13;;;;;;;;;;10160445;28;20073;-60
2022/08/02 19:39:06;;;;;;;2.53;1.77;;;;;;;;;;10173182;28;20076;-61
2022/08/02 19:44:05;;;;;;;4.68;2.78;;;;;;;;;;10178550;28;20066;-62
2022/08/02 19:49:26;;;;;;;5.65;2.30;;;;;;;;;;10167017;28;20061;-62
2022/08/02 19:54:38;;;;;;;3.55;2.30;;;;;;;;;;10175625;28;20069;-61
2022/08/02 19:59:53;;;;;;;3.45;2.90;;;;;;;;;;10177085;28;20073;-60
2022/08/02 20:04:51;;;;;;;4.15;2.40;;;;;;;;;;10158221;28;20081;-60
2022/08/02 20:09:54;;;;;;;2.70;2.33;;;;;;;;;;10173476;28;20074;-62
2022/08/02 20:14:53;;;;;;;6.55;2.33;;;;;;;;;;10166449;28;20096;-61
2022/08/02 20:19:52;;;;;;;3.80;2.55;;;;;;;;;;10176030;28;20089;-60
2022/08/02 20:24:50;;;;;;;5.57;1.95;;;;;;;;;;10162427;28;20461;-60
2022/08/02 20:29:50;;;;;;;2.58;2.17;;;;;;;;;;10161445;28;20072;-60
2022/08/02 20:34:48;;;;;;;4.55;2.80;;;;;;;;;;10196862;28;20038;-60
2022/08/02 20:39:48;;;;;;;9.93;2.33;;;;;;;;;;10196680;28;20054;-66
2022/08/02 20:44:47;;;;;;;2.45;1.92;;;;;;;;;;10196536;28;20077;-60
2022/08/02 20:54:59;;;;;;;;;;;;;;;;;;10196478;28;20053;-60
2022/08/02 21:00:01;;;;;;;6.43;2.85;;;;;;;;;;10196180;28;20331;-60
2022/08/02 21:05:01;;;;;;;8.98;2.70;;;;;;;;;;10195359;28;20479;-60
2022/08/02 21:10:19;;;;;;;5.32;2.70;;;;;;;;;;10195910;28;20204;-61
2022/08/02 21:15:21;;;;;;;5.57;2.80;;;;;;;;;;10195545;28;20088;-61
2022/08/02 21:20:20;;;;;;;3.20;2.72;;;;;;;;;;10194925;28;20078;-60
2022/08/02 21:25:25;;;;;;;3.25;2.45;;;;;;;;;;10195774;28;20499;-62
2022/08/02 21:30:43;;;;;;;4.90;2.67;;;;;;;;;;10195208;28;20053;-60
2022/08/02 21:35:44;;;;;;;4.75;2.63;;;;;;;;;;10194072;28;20077;-60
2022/08/02 21:40:47;;;;;;;7.32;3.05;;;;;;;;;;10194843;28;20049;-61
2022/08/02 21:45:45;;;;;;;4.68;2.80;;;;;;;;;;10193949;28;20100;-61
2022/08/02 21:51:05;;;;;;;2.80;2.47;;;;;;;;;;10194330;28;20073;-60
2022/08/02 21:56:10;;;;;;;3.83;2.70;;;;;;;;;;10194933;28;20073;-59
2022/08/02 22:01:08;;;;;;;3.25;2.53;;;;;;;;;;10193452;28;20049;-58
2022/08/02 22:06:08;;;;;;;7.07;2.60;;;;;;;;;;10194204;28;20088;-59
2022/08/02 22:11:07;;;;;;;3.30;2.85;;;;;;;;;;10193200;28;20041;-59
2022/08/02 22:16:14;;;;;;;3.08;2.70;;;;;;;;;;10193741;28;20073;-60
2022/08/02 22:21:17;;;;;;;4.43;2.92;;;;;;;;;;10193932;28;20054;-60
2022/08/02 22:26:15;;;;;;;3.08;2.88;;;;;;;;;;10193563;28;20085;-61
2022/08/02 22:31:16;;;;;;;2.65;2.40;;;;;;;;;;10194222;28;20045;-60
2022/08/02 22:36:37;;;;;;;6.45;2.88;;;;;;;;;;10194305;28;20065;-61
2022/08/02 22:41:40;;;;;;;3.42;2.75;;;;;;;;;;10192994;28;20057;-60
2022/08/02 22:46:58;;;;;;;3.80;2.83;;;;;;;;;;10199487;28;20089;-60
2022/08/02 22:52:05;;;;;;;3.25;2.88;;;;;;;;;;10201122;28;20430;-60
2022/08/02 22:57:04;;;;;;;3.25;2.95;;;;;;;;;;10200794;28;20085;-60
2022/08/02 23:02:04;;;;;;;4.10;2.80;;;;;;;;;;10200519;28;20084;-60
2022/08/02 23:07:02;;;;;;;3.63;2.80;;;;;;;;;;10200408;28;20045;-59
2022/08/02 23:12:02;;;;;;;7.80;2.88;;;;;;;;;;10200204;28;20042;-60
2022/08/02 23:22:16;;;;;;;2.80;2.55;;;;;;;;;;10200094;28;20524;-60
2022/08/02 23:27:16;;;;;;;2.97;2.53;;;;;;;;;;10199084;28;20046;-59
2022/08/02 23:32:15;;;;;;;3.33;2.70;;;;;;;;;;10200453;28;20053;-59
2022/08/02 23:37:13;;;;;;;3.50;3.20;;;;;;;;;;10199122;28;20077;-59
2022/08/02 23:42:12;;;;;;;3.05;2.83;;;;;;;;;;10199515;28;20081;-59
2022/08/02 23:47:12;;;;;;;3.42;3.13;;;;;;;;;;10198604;28;20053;-59
2022/08/02 23:52:10;;;;;;;3.28;2.97;;;;;;;;;;10198833;28;20070;-60
2022/08/02 23:57:09;;;;;;;3.88;3.20;;;;;;;;;;10197724;28;20088;-59
